Daikoku — JD3247 — position and weather

sailwx.info

Track history (hours):
 
Tides and Currents Weather Stations Pressure Air Temp Water Temp Dewpoint Dewpoint Depression Visibility Wind Speed Wind Dir Waves Ship Positions

Daikoku

Last reported at 2014-Oct-29 14:04 UTC. Time now 2014-Oct-30 15:06 UTC.
Position N 35°06' E 139°41'.

Length 95 m; draft 3.7 m.

Type: Cargo ship. MMSI: 431003009.

Date/timePositionNaut miles runAvg speedWind from/ knotsBaromVisibWave heightAir tempDewpointWater temp
2014-Oct-29 14:04N 35°06' E 139°41'612.3
2014-Oct-29 13:33N 35°11' E 139°45'1313.0
2014-Oct-29 12:33N 35°23' E 139°42'3 3.2
2014-Oct-29 11:32N 35°26' E 139°41'0 0.0
2014-Oct-29 10:32N 35°26' E 139°41'0 0.0
2014-Oct-29 09:32N 35°26' E 139°41'0 0.0
2014-Oct-29 08:32N 35°26' E 139°41'0 0.0
2014-Oct-29 07:32N 35°26' E 139°41'3 3.5
2014-Oct-29 06:33N 35°27' E 139°45'8 7.6
2014-Oct-29 05:33N 35°34' E 139°49'1 0.5
2014-Oct-29 02:18N 35°35' E 139°48'5 6.2
2014-Oct-29 01:29N 35°30' E 139°48'3 3.1
2014-Oct-29 00:33N 35°29' E 139°45'1010.5
2014-Oct-28 23:34N 35°18' E 139°44'240 6.1
2014-Oct-27 08:11N 34°22' E 135°01'914.7
2014-Oct-27 07:33N 34°28' E 135°09'1312.5
2014-Oct-27 06:32N 34°40' E 135°15'1 0.9
2014-Oct-27 05:33N 34°40' E 135°14'2 2.0
2014-Oct-27 04:32N 34°41' E 135°16'2 1.6
2014-Oct-27 03:33N 34°40' E 135°14'0 0.4
2014-Oct-27 02:26N 34°40' E 135°14'0 0.6
2014-Oct-27 01:33N 34°40' E 135°14'1 0.6
2014-Oct-27 00:30N 34°40' E 135°14'0 0.0
2014-Oct-26 23:30N 34°40' E 135°14'0 0.0
2014-Oct-26 22:30N 34°40' E 135°14'0 0.0
2014-Oct-26 21:30N 34°40' E 135°14'2 1.9
2014-Oct-26 20:32N 34°41' E 135°13'0 0.0
2014-Oct-26 19:32N 34°41' E 135°13'0 0.0
2014-Oct-26 18:32N 34°41' E 135°13'0 0.0
2014-Oct-26 17:32N 34°41' E 135°13'0 0.0
2014-Oct-26 16:20N 34°41' E 135°13'0 0.0
2014-Oct-26 15:32N 34°41' E 135°13'0 0.0
2014-Oct-26 14:26N 34°41' E 135°13'0 0.0
2014-Oct-26 13:32N 34°41' E 135°13'0 0.0
2014-Oct-26 12:32N 34°41' E 135°13'0 0.0
2014-Oct-26 11:32N 34°41' E 135°13'0 0.0
2014-Oct-26 10:32N 34°41' E 135°13'0 0.0
2014-Oct-26 09:32N 34°41' E 135°13'0 0.0
2014-Oct-26 08:26N 34°41' E 135°13'0 0.0
2014-Oct-26 07:26N 34°41' E 135°13'0 0.0
2014-Oct-26 06:32N 34°41' E 135°13'0 0.0
2014-Oct-26 05:32N 34°41' E 135°13'0 0.0
2014-Oct-26 04:32N 34°41' E 135°13'0 0.0
2014-Oct-26 03:26N 34°41' E 135°13'0 0.0
2014-Oct-26 02:32N 34°41' E 135°13'0 0.0
2014-Oct-26 01:32N 34°41' E 135°13'0 0.0
2014-Oct-26 00:32N 34°41' E 135°13'0 0.0
2014-Oct-25 23:32N 34°41' E 135°13'0 0.0
2014-Oct-25 22:32N 34°41' E 135°13'0 0.0
2014-Oct-25 21:32N 34°41' E 135°13'0 0.0
2014-Oct-25 20:26N 34°41' E 135°13'0 0.0
2014-Oct-25 19:32N 34°41' E 135°13'0 0.0
2014-Oct-25 18:32N 34°41' E 135°13'0 0.0
2014-Oct-25 17:32N 34°41' E 135°13'0 0.0
2014-Oct-25 16:32N 34°41' E 135°13'0 0.0
2014-Oct-25 15:32N 34°41' E 135°13'0 0.0
2014-Oct-25 14:26N 34°41' E 135°13'0 0.0
2014-Oct-25 13:32N 34°41' E 135°13'5 4.9
2014-Oct-25 12:33N 34°38' E 135°17'4 4.4
2014-Oct-25 11:33N 34°34' E 135°16'1212.0
2014-Oct-25 10:33N 34°25' E 135°06'1211.6
2014-Oct-25 09:33N 34°15' E 134°59'1312.3
2014-Oct-25 08:32N 34°02' E 135°00'24410.6
2014-Oct-24 09:32N 35°10' E 139°45'1212.3
2014-Oct-24 08:33N 35°22' E 139°42'6 5.4
2014-Oct-24 07:32N 35°27' E 139°41'4 4.1
2014-Oct-24 06:33N 35°28' E 139°46'7 1.7
2014-Oct-24 02:29N 35°35' E 139°48'6 6.2
2014-Oct-24 01:33N 35°29' E 139°45'4 4.2
2014-Oct-24 00:33N 35°25' E 139°47'1010.4
2014-Oct-23 23:33N 35°15' E 139°47'3 0.1
2014-Oct-22 12:33N 35°12' E 139°46'1312.9
2014-Oct-22 11:33N 35°24' E 139°43'2 2.2
2014-Oct-22 10:30N 35°26' E 139°41'2 2.5
2014-Oct-22 09:33N 35°27' E 139°44'2 1.8
2014-Oct-22 08:32N 35°28' E 139°42'8 8.6
2014-Oct-22 07:33N 35°30' E 139°52'8 7.0
2014-Oct-22 06:25N 35°28' E 140°01'7 7.7
2014-Oct-22 05:33N 35°31' E 139°53'4 1.9
2014-Oct-22 03:13N 35°30' E 139°48'2 2.6
2014-Oct-22 02:18N 35°29' E 139°45'6 8.4
2014-Oct-22 01:33N 35°23' E 139°46'1010.3
2014-Oct-22 00:33N 35°13' E 139°47'239 6.1
2014-Oct-20 09:32N 34°24' E 135°02'1313.4
2014-Oct-20 08:33N 34°32' E 135°14'8 7.7
2014-Oct-20 07:28N 34°41' E 135°16'0 0.1
2014-Oct-20 06:33N 34°41' E 135°16'2 1.8
2014-Oct-20 05:33N 34°40' E 135°14'0 0.1
2014-Oct-20 04:33N 34°40' E 135°14'0 0.0
2014-Oct-20 03:29N 34°40' E 135°14'0 0.0
2014-Oct-20 02:17N 34°40' E 135°14'0 0.5
2014-Oct-20 01:33N 34°40' E 135°14'0 0.3
2014-Oct-20 00:31N 34°40' E 135°14'0 0.0
2014-Oct-19 23:31N 34°40' E 135°14'0 0.0
2014-Oct-19 22:31N 34°40' E 135°14'1 0.9
2014-Oct-19 21:33N 34°40' E 135°15'3 2.6
2014-Oct-19 20:29N 34°37' E 135°15'0 0.0
2014-Oct-19 19:29N 34°37' E 135°15'0 0.0
2014-Oct-19 18:23N 34°37' E 135°15'0 0.1
2014-Oct-19 17:33N 34°37' E 135°15'10 9.8
2014-Oct-19 16:33N 34°28' E 135°09'1110.5
2014-Oct-19 15:32N 34°20' E 135°00'1110.8
2014-Oct-19 14:33N 34°10' E 134°60'  
Track history (hours):
 
Tides and Currents Weather Stations Pressure Air Temp Water Temp Dewpoint Dewpoint Depression Visibility Wind Speed Wind Dir Waves Ship Positions

Daikoku

Last reported at 2014-Oct-29 14:04 UTC. Time now 2014-Oct-30 15:06 UTC.
Position N 35°06' E 139°41'.

Length 95 m; draft 3.7 m.

Type: Cargo ship. MMSI: 431003009.

Date/timePositionNaut miles runAvg speedWind from/ knotsBaromVisibWave heightAir tempDewpointWater temp
2014-Oct-29 14:04N 35°06' E 139°41'612.3
2014-Oct-29 13:33N 35°11' E 139°45'1313.0
2014-Oct-29 12:33N 35°23' E 139°42'3 3.2
2014-Oct-29 11:32N 35°26' E 139°41'0 0.0
2014-Oct-29 10:32N 35°26' E 139°41'0 0.0
2014-Oct-29 09:32N 35°26' E 139°41'0 0.0
2014-Oct-29 08:32N 35°26' E 139°41'0 0.0
2014-Oct-29 07:32N 35°26' E 139°41'3 3.5
2014-Oct-29 06:33N 35°27' E 139°45'8 7.6
2014-Oct-29 05:33N 35°34' E 139°49'1 0.5
2014-Oct-29 02:18N 35°35' E 139°48'5 6.2
2014-Oct-29 01:29N 35°30' E 139°48'3 3.1
2014-Oct-29 00:33N 35°29' E 139°45'1010.5
2014-Oct-28 23:34N 35°18' E 139°44'240 6.1
2014-Oct-27 08:11N 34°22' E 135°01'914.7
2014-Oct-27 07:33N 34°28' E 135°09'1312.5
2014-Oct-27 06:32N 34°40' E 135°15'1 0.9
2014-Oct-27 05:33N 34°40' E 135°14'2 2.0
2014-Oct-27 04:32N 34°41' E 135°16'2 1.6
2014-Oct-27 03:33N 34°40' E 135°14'0 0.4
2014-Oct-27 02:26N 34°40' E 135°14'0 0.6
2014-Oct-27 01:33N 34°40' E 135°14'1 0.6
2014-Oct-27 00:30N 34°40' E 135°14'0 0.0
2014-Oct-26 23:30N 34°40' E 135°14'0 0.0
2014-Oct-26 22:30N 34°40' E 135°14'0 0.0
2014-Oct-26 21:30N 34°40' E 135°14'2 1.9
2014-Oct-26 20:32N 34°41' E 135°13'0 0.0
2014-Oct-26 19:32N 34°41' E 135°13'0 0.0
2014-Oct-26 18:32N 34°41' E 135°13'0 0.0
2014-Oct-26 17:32N 34°41' E 135°13'0 0.0
2014-Oct-26 16:20N 34°41' E 135°13'0 0.0
2014-Oct-26 15:32N 34°41' E 135°13'0 0.0
2014-Oct-26 14:26N 34°41' E 135°13'0 0.0
2014-Oct-26 13:32N 34°41' E 135°13'0 0.0
2014-Oct-26 12:32N 34°41' E 135°13'0 0.0
2014-Oct-26 11:32N 34°41' E 135°13'0 0.0
2014-Oct-26 10:32N 34°41' E 135°13'0 0.0
2014-Oct-26 09:32N 34°41' E 135°13'0 0.0
2014-Oct-26 08:26N 34°41' E 135°13'0 0.0
2014-Oct-26 07:26N 34°41' E 135°13'0 0.0
2014-Oct-26 06:32N 34°41' E 135°13'0 0.0
2014-Oct-26 05:32N 34°41' E 135°13'0 0.0
2014-Oct-26 04:32N 34°41' E 135°13'0 0.0
2014-Oct-26 03:26N 34°41' E 135°13'0 0.0
2014-Oct-26 02:32N 34°41' E 135°13'0 0.0
2014-Oct-26 01:32N 34°41' E 135°13'0 0.0
2014-Oct-26 00:32N 34°41' E 135°13'0 0.0
2014-Oct-25 23:32N 34°41' E 135°13'0 0.0
2014-Oct-25 22:32N 34°41' E 135°13'0 0.0
2014-Oct-25 21:32N 34°41' E 135°13'0 0.0
2014-Oct-25 20:26N 34°41' E 135°13'0 0.0
2014-Oct-25 19:32N 34°41' E 135°13'0 0.0
2014-Oct-25 18:32N 34°41' E 135°13'0 0.0
2014-Oct-25 17:32N 34°41' E 135°13'0 0.0
2014-Oct-25 16:32N 34°41' E 135°13'0 0.0
2014-Oct-25 15:32N 34°41' E 135°13'0 0.0
2014-Oct-25 14:26N 34°41' E 135°13'0 0.0
2014-Oct-25 13:32N 34°41' E 135°13'5 4.9
2014-Oct-25 12:33N 34°38' E 135°17'4 4.4
2014-Oct-25 11:33N 34°34' E 135°16'1212.0
2014-Oct-25 10:33N 34°25' E 135°06'1211.6
2014-Oct-25 09:33N 34°15' E 134°59'1312.3
2014-Oct-25 08:32N 34°02' E 135°00'24410.6
2014-Oct-24 09:32N 35°10' E 139°45'1212.3
2014-Oct-24 08:33N 35°22' E 139°42'6 5.4
2014-Oct-24 07:32N 35°27' E 139°41'4 4.1
2014-Oct-24 06:33N 35°28' E 139°46'7 1.7
2014-Oct-24 02:29N 35°35' E 139°48'6 6.2
2014-Oct-24 01:33N 35°29' E 139°45'4 4.2
2014-Oct-24 00:33N 35°25' E 139°47'1010.4
2014-Oct-23 23:33N 35°15' E 139°47'3 0.1
2014-Oct-22 12:33N 35°12' E 139°46'1312.9
2014-Oct-22 11:33N 35°24' E 139°43'2 2.2
2014-Oct-22 10:30N 35°26' E 139°41'2 2.5
2014-Oct-22 09:33N 35°27' E 139°44'2 1.8
2014-Oct-22 08:32N 35°28' E 139°42'8 8.6
2014-Oct-22 07:33N 35°30' E 139°52'8 7.0
2014-Oct-22 06:25N 35°28' E 140°01'7 7.7
2014-Oct-22 05:33N 35°31' E 139°53'4 1.9
2014-Oct-22 03:13N 35°30' E 139°48'2 2.6
2014-Oct-22 02:18N 35°29' E 139°45'6 8.4
2014-Oct-22 01:33N 35°23' E 139°46'1010.3
2014-Oct-22 00:33N 35°13' E 139°47'239 6.1
2014-Oct-20 09:32N 34°24' E 135°02'1313.4
2014-Oct-20 08:33N 34°32' E 135°14'8 7.7
2014-Oct-20 07:28N 34°41' E 135°16'0 0.1
2014-Oct-20 06:33N 34°41' E 135°16'2 1.8
2014-Oct-20 05:33N 34°40' E 135°14'0 0.1
2014-Oct-20 04:33N 34°40' E 135°14'0 0.0
2014-Oct-20 03:29N 34°40' E 135°14'0 0.0
2014-Oct-20 02:17N 34°40' E 135°14'0 0.5
2014-Oct-20 01:33N 34°40' E 135°14'0 0.3
2014-Oct-20 00:31N 34°40' E 135°14'0 0.0
2014-Oct-19 23:31N 34°40' E 135°14'0 0.0
2014-Oct-19 22:31N 34°40' E 135°14'1 0.9
2014-Oct-19 21:33N 34°40' E 135°15'3 2.6
2014-Oct-19 20:29N 34°37' E 135°15'0 0.0
2014-Oct-19 19:29N 34°37' E 135°15'0 0.0
2014-Oct-19 18:23N 34°37' E 135°15'0 0.1
2014-Oct-19 17:33N 34°37' E 135°15'10 9.8
2014-Oct-19 16:33N 34°28' E 135°09'1110.5
2014-Oct-19 15:32N 34°20' E 135°00'1110.8
2014-Oct-19 14:33N 34°10' E 134°60'  

Dump ship's entire track history